createdAt,value
2022-08-11T00:00:14.270Z,34.34
2022-08-11T00:06:41.622Z,34.32
2022-08-11T00:13:34.260Z,34.3
2022-08-11T00:20:24.160Z,34.05
2022-08-11T00:27:14.733Z,34.12
2022-08-11T00:34:05.642Z,34.01
2022-08-11T00:41:16.067Z,34.16
2022-08-11T00:48:10.301Z,34.31
2022-08-11T00:55:16.382Z,34.13
2022-08-11T01:02:31.722Z,34.35
2022-08-11T01:09:35.521Z,34.21
2022-08-11T01:16:30.766Z,34.4
2022-08-11T01:23:37.680Z,34.47
2022-08-11T01:30:49.682Z,34.49
2022-08-11T01:38:06.245Z,34.36
2022-08-11T01:45:06.007Z,34.5
2022-08-11T01:52:09.224Z,34.56
2022-08-11T01:59:38.305Z,34.4
2022-08-11T02:07:03.665Z,34.51
2022-08-11T02:14:15.356Z,34.64
2022-08-11T02:21:17.316Z,34.61
2022-08-11T02:28:40.297Z,34.44
2022-08-11T02:35:52.351Z,34.19
2022-08-11T02:43:17.692Z,34.44
2022-08-11T02:50:24.941Z,34.56
2022-08-11T02:57:35.748Z,34.53
2022-08-11T03:05:08.132Z,34.52
2022-08-11T03:12:06.229Z,34.49
2022-08-11T03:19:12.557Z,34.45
2022-08-11T03:26:19.668Z,34.52
2022-08-11T03:33:27.586Z,34.5
2022-08-11T03:40:41.752Z,34.46
2022-08-11T03:47:56.057Z,34.46
2022-08-11T03:55:08.401Z,34.48
2022-08-11T04:02:14.311Z,34.51
2022-08-11T04:09:16.732Z,34.48
2022-08-11T04:16:26.260Z,34.51
2022-08-11T04:24:13.485Z,34.5
2022-08-11T04:30:50.059Z,34.35
2022-08-11T04:37:53.942Z,34.43
2022-08-11T04:44:56.348Z,34.35
2022-08-11T04:52:13.304Z,34.37
2022-08-11T04:59:22.258Z,34.36
2022-08-11T05:06:23.810Z,34.31
2022-08-11T05:13:30.356Z,34.28
2022-08-11T05:20:23.413Z,34.27
2022-08-11T05:27:21.427Z,34.24
2022-08-11T05:34:29.293Z,34.18
2022-08-11T05:41:15.537Z,34.15
2022-08-11T05:48:02.388Z,34.11
2022-08-11T05:54:36.666Z,34.19
2022-08-11T06:01:23.715Z,34.08
2022-08-11T06:08:14.513Z,34.15
2022-08-11T06:14:59.708Z,34.11
2022-08-11T06:21:48.305Z,34.11
2022-08-11T06:28:22.635Z,34.06
2022-08-11T06:35:24.249Z,34.07
2022-08-11T06:42:32.696Z,34.11
2022-08-11T06:49:24.906Z,34
2022-08-11T06:56:08.728Z,33.98
2022-08-11T07:02:59.496Z,34.01
2022-08-11T07:10:08.816Z,34.01
2022-08-11T07:17:07.821Z,33.99
2022-08-11T07:23:58.950Z,33.99
2022-08-11T07:30:51.545Z,33.89
2022-08-11T07:37:58.206Z,33.9
2022-08-11T07:44:54.842Z,33.84
2022-08-11T07:51:31.816Z,33.79
2022-08-11T07:58:15.638Z,33.85
2022-08-11T08:04:49.079Z,33.8
2022-08-11T08:11:16.789Z,33.86
2022-08-11T08:18:08.894Z,33.77
2022-08-11T08:24:40.590Z,33.7
2022-08-11T08:31:09.893Z,33.76
2022-08-11T08:37:47.641Z,33.59
2022-08-11T08:44:39.421Z,33.61
2022-08-11T08:51:22.545Z,33.7
2022-08-11T08:58:10.543Z,33.69
2022-08-11T09:04:44.501Z,33.79
2022-08-11T09:11:30.214Z,33.76
2022-08-11T09:18:01.919Z,33.71
2022-08-11T09:24:33.469Z,33.67
2022-08-11T09:31:08.541Z,33.74
2022-08-11T09:37:56.549Z,33.68
2022-08-11T09:44:27.455Z,33.68
2022-08-11T09:51:00.995Z,33.69
2022-08-11T09:57:38.923Z,33.61
2022-08-11T10:04:35.078Z,33.64
2022-08-11T10:11:21.521Z,33.72
2022-08-11T10:18:09.005Z,33.63
2022-08-11T10:24:44.632Z,33.65
2022-08-11T10:31:17.953Z,33.68
2022-08-11T10:38:07.061Z,33.65
2022-08-11T10:44:31.097Z,33.57
2022-08-11T10:51:10.773Z,33.6
2022-08-11T10:58:04.475Z,33.57
2022-08-11T11:04:52.554Z,33.67
2022-08-11T11:11:50.464Z,33.57
2022-08-11T11:18:37.986Z,33.6
2022-08-11T11:25:57.343Z,33.53
2022-08-11T11:33:22.334Z,33.53
2022-08-11T11:40:09.631Z,33.42
2022-08-11T11:46:50.662Z,33.46
2022-08-11T11:53:31.049Z,33.63
2022-08-11T12:00:10.020Z,33.57
2022-08-11T12:06:41.533Z,33.56
2022-08-11T12:13:22.589Z,33.59
2022-08-11T12:20:03.118Z,33.48
2022-08-11T12:26:37.192Z,33.57
2022-08-11T12:33:23.993Z,33.53
2022-08-11T12:40:37.664Z,33.66
2022-08-11T12:47:13.502Z,33.6
2022-08-11T12:54:10.646Z,33.65
2022-08-11T13:01:13.248Z,33.7
2022-08-11T13:07:54.170Z,33.66
2022-08-11T13:14:38.642Z,33.71
2022-08-11T13:21:21.573Z,33.64
2022-08-11T13:28:02.053Z,33.68
2022-08-11T13:34:34.882Z,33.63
2022-08-11T13:41:06.063Z,33.63
2022-08-11T13:47:40.172Z,33.59
2022-08-11T13:54:15.720Z,33.54
2022-08-11T14:00:52.942Z,33.63
2022-08-11T14:07:35.887Z,33.56
2022-08-11T14:14:28.474Z,33.54
2022-08-11T14:21:24.002Z,33.52
2022-08-11T14:28:25.865Z,33.5
2022-08-11T14:35:01.215Z,33.42
2022-08-11T14:42:12.010Z,33.37
2022-08-11T14:48:37.374Z,33.39
2022-08-11T14:55:08.655Z,33.37
2022-08-11T15:01:41.758Z,33.34
2022-08-11T15:08:20.383Z,33.27
2022-08-11T15:14:59.262Z,33.09
2022-08-11T15:21:40.030Z,33
2022-08-11T15:28:12.759Z,33.13
2022-08-11T15:34:49.783Z,33
2022-08-11T15:41:43.750Z,33.29
2022-08-11T15:48:33.774Z,33.37
2022-08-11T15:55:24.598Z,33.35
2022-08-11T16:02:04.059Z,33.38
2022-08-11T16:08:53.717Z,33.35
2022-08-11T16:15:41.968Z,33.39
2022-08-11T16:22:34.773Z,33.45
2022-08-11T16:29:08.764Z,33.46
2022-08-11T16:35:40.215Z,33.59
2022-08-11T16:42:59.868Z,33.5
2022-08-11T16:49:11.832Z,33.57
2022-08-11T16:55:52.356Z,33.77
2022-08-11T17:02:52.866Z,33.82
2022-08-11T17:09:47.074Z,33.86
2022-08-11T17:16:51.560Z,33.92
2022-08-11T17:23:46.321Z,33.87
2022-08-11T17:30:33.442Z,33.92
2022-08-11T17:37:18.876Z,33.88
2022-08-11T17:44:05.120Z,33.87
2022-08-11T17:50:43.860Z,33.79
2022-08-11T17:57:21.901Z,33.84
2022-08-11T18:03:58.815Z,33.75
2022-08-11T18:10:54.752Z,33.78
2022-08-11T18:17:42.950Z,33.75
2022-08-11T18:24:11.952Z,33.8
2022-08-11T18:31:04.437Z,33.74
2022-08-11T18:37:51.005Z,33.54
2022-08-11T18:44:50.962Z,33.74
2022-08-11T18:51:38.964Z,33.56
2022-08-11T18:58:17.902Z,33.76
2022-08-11T19:04:58.371Z,33.76
2022-08-11T19:11:42.907Z,33.36
2022-08-11T19:18:28.351Z,33.72
2022-08-11T19:25:13.992Z,33.82
2022-08-11T19:31:55.037Z,33.82
2022-08-11T19:38:26.381Z,33.87
2022-08-11T19:45:03.183Z,33.76
2022-08-11T19:51:46.440Z,33.77
2022-08-11T19:58:28.953Z,33.47
2022-08-11T20:05:09.890Z,33.71
2022-08-11T20:11:38.079Z,33.94
2022-08-11T20:18:23.380Z,33.92
2022-08-11T20:25:06.891Z,34.02
2022-08-11T20:31:41.544Z,34.05
2022-08-11T20:38:14.406Z,34.19
2022-08-11T20:44:48.042Z,34.23
2022-08-11T20:51:18.116Z,34.35
2022-08-11T20:58:04.855Z,34.3
2022-08-11T21:04:54.138Z,34.27
2022-08-11T21:11:39.959Z,34.21
2022-08-11T21:18:30.048Z,34.13
2022-08-11T21:25:14.007Z,34.14
2022-08-11T21:31:57.409Z,34.37
2022-08-11T21:38:28.446Z,34.12
2022-08-11T21:45:04.858Z,34.19
2022-08-11T21:51:45.011Z,34.12
2022-08-11T21:58:23.022Z,34.16
2022-08-11T22:04:58.024Z,34.29
2022-08-11T22:11:32.807Z,34.08
2022-08-11T22:18:08.132Z,34.02
2022-08-11T22:24:46.467Z,34
2022-08-11T22:31:23.988Z,33.67
2022-08-11T22:37:57.078Z,33.9
2022-08-11T22:44:26.955Z,33.84
2022-08-11T22:51:02.477Z,33.79
2022-08-11T22:57:37.094Z,33.81
2022-08-11T23:04:15.387Z,33.82
2022-08-11T23:10:50.910Z,33.94
2022-08-11T23:17:19.262Z,33.97
2022-08-11T23:23:56.256Z,33.85
2022-08-11T23:30:28.756Z,33.92
2022-08-11T23:37:08.151Z,33.98
2022-08-11T23:43:33.118Z,34.07
2022-08-11T23:49:57.842Z,34.15
2022-08-11T23:56:37.407Z,34.06
